Sponsor www.jackysshop.nl


METAR rapporten vliegvelden

   
EBAW - Antwerp
Gewijzigd: 14-08-2018 20:50
Helder  
Helder  
   Wind: Westen 11.1 km/h
Wind: Westen 11.1 km/h
Temperatuur: 20°C
Dauwpunt: 12°C
Vochtigheid: 60%
Barometer: 1018 hPa
Zicht: meer dan 10 km
Bewolking: Helder
EBAW 141850Z 28006KT CAVOK 20/12 Q1018 NOSIG
EBLG - Li├Ęge
Gewijzigd: 14-08-2018 20:50
Licht bewolkt  
Licht bewolkt  
   Wind: WNW 7.4 km/h
Wind: WNW 7.4 km/h
Temperatuur: 19°C
Dauwpunt: 14°C
Vochtigheid: 73%
Barometer: 1018 hPa
Bewolking: Licht bewolkt
Zicht: meer dan 10 km
Bewolking: Licht bewolkt 2800 ft
EBLG 141850Z 29004KT 9999 FEW028 19/14 Q1018 NOSIG
EBCV - Mons/Bergen
Gewijzigd: 14-08-2018 20:55
Grotendeels bewolkt  
Grotendeels bewolkt  
   Wind: Westen 13 km/h
Wind: Westen 13 km/h
Temperatuur: 20°C
Dauwpunt: 13°C
Vochtigheid: 64%
Barometer: 1019 hPa
Bewolking: Grotendeels bewolkt
Zicht: meer dan 10 km
Bewolking: Grotendeels bewolkt 4900 ft
EBCV 141855Z AUTO 27007KT 9999 BKN049/// 20/13 Q1019 BLU
EHBK - Maastricht
Gewijzigd: 14-08-2018 20:55
Grotendeels bewolkt  
Grotendeels bewolkt  
   Wind: Westen 7.4 km/h
Wind: Westen 7.4 km/h
Temperatuur: 20°C
Dauwpunt: 15°C
Vochtigheid: 73%
Barometer: 1017 hPa
Bewolking: Grotendeels bewolkt
Zicht: meer dan 10 km
Bewolking: Licht bewolkt 2500 ft,
Grotendeels bewolkt 3000 ft,
Grotendeels bewolkt 3700 ft
EHBK 141855Z AUTO 28004KT 240V330 9999 FEW025 BKN030 BKN037 20/15 Q1017 NOSIG
ELLX - Luxemburg
Gewijzigd: 14-08-2018 20:50
Grotendeels bewolkt  
Grotendeels bewolkt  
   Wind: Westen 9.3 km/h
Wind: Westen 9.3 km/h
Temperatuur: 19°C
Dauwpunt: 15°C
Vochtigheid: 78%
Barometer: 1019 hPa
Bewolking: Grotendeels bewolkt
Zicht: meer dan 10 km
Bewolking: Licht bewolkt 2500 ft,
Grotendeels bewolkt 7000 ft
ELLX 141850Z 28005KT 9999 FEW025TCU BKN070 19/15 Q1019 NOSIG
EBOS - Oostende
Gewijzigd: 14-08-2018 20:50
Licht bewolkt  
Licht bewolkt  
   Wind: ZW 13 km/h
Wind: ZW 13 km/h
Temperatuur: 18°C
Dauwpunt: 14°C
Vochtigheid: 78%
Barometer: 1018 hPa
Bewolking: Licht bewolkt
Zicht: meer dan 10 km
Bewolking: Licht bewolkt 2500 ft
EBOS 141850Z 23007KT 9999 FEW025 18/14 Q1018 NOSIG

Script ontwikkeld door  Saratoga-weather.org Aangepast voor de template door  Weerstation Leuven